createdAt,value
2023-01-19T00:00:50.596Z,88.90
2023-01-19T00:03:18.485Z,88.80
2023-01-19T00:05:45.349Z,88.20
2023-01-19T00:08:15.234Z,88.20
2023-01-19T00:10:43.955Z,88.50
2023-01-19T00:13:11.193Z,88.40
2023-01-19T00:15:38.022Z,88.50
2023-01-19T00:18:05.224Z,87.20
2023-01-19T00:20:32.877Z,87.40
2023-01-19T00:23:00.289Z,87.60
2023-01-19T00:25:27.443Z,87.60
2023-01-19T00:27:54.281Z,87.70
2023-01-19T00:30:21.057Z,87.90
2023-01-19T00:32:47.828Z,88.00
2023-01-19T00:35:15.000Z,88.10
2023-01-19T00:37:46.010Z,88.30
2023-01-19T00:40:13.979Z,88.60
2023-01-19T00:42:41.214Z,88.70
2023-01-19T00:45:09.960Z,88.60
2023-01-19T00:47:37.070Z,88.90
2023-01-19T00:50:04.156Z,89.00
2023-01-19T00:52:31.544Z,88.90
2023-01-19T00:54:58.298Z,89.20
2023-01-19T00:57:25.126Z,89.30
2023-01-19T00:59:51.865Z,89.50
2023-01-19T01:02:18.790Z,89.30
2023-01-19T01:04:45.626Z,89.40
2023-01-19T01:07:12.356Z,89.60
2023-01-19T01:09:39.123Z,89.80
2023-01-19T01:12:06.196Z,89.70
2023-01-19T01:14:33.049Z,89.40
2023-01-19T01:17:00.609Z,89.30
2023-01-19T01:19:27.454Z,89.10
2023-01-19T01:21:55.470Z,88.90
2023-01-19T01:24:22.603Z,88.70
2023-01-19T01:26:49.386Z,88.00
2023-01-19T01:29:16.306Z,87.60
2023-01-19T01:31:43.129Z,87.50
2023-01-19T01:34:10.030Z,87.30
2023-01-19T01:36:36.820Z,87.50
2023-01-19T01:39:04.089Z,87.60
2023-01-19T01:41:32.331Z,87.70
2023-01-19T01:44:01.613Z,87.80
2023-01-19T01:46:31.158Z,87.80
2023-01-19T01:49:02.710Z,87.90
2023-01-19T01:51:38.919Z,87.90
2023-01-19T01:54:31.956Z,87.90
2023-01-19T01:57:03.992Z,87.70
2023-01-19T01:59:34.893Z,87.90
2023-01-19T02:02:27.751Z,87.70
2023-01-19T02:04:59.738Z,87.70
2023-01-19T02:08:01.825Z,88.00
2023-01-19T02:10:50.243Z,87.90
2023-01-19T02:13:17.145Z,88.10
2023-01-19T02:15:44.069Z,88.30
2023-01-19T02:18:11.186Z,88.50
2023-01-19T02:20:40.843Z,88.70
2023-01-19T02:23:16.813Z,88.60
2023-01-19T02:25:43.913Z,88.60
2023-01-19T02:28:11.772Z,88.50
2023-01-19T02:30:40.813Z,88.80
2023-01-19T02:33:09.363Z,88.60
2023-01-19T02:35:38.427Z,88.60
2023-01-19T02:38:07.599Z,88.50
2023-01-19T02:40:34.610Z,88.10
2023-01-19T02:43:03.344Z,88.00
2023-01-19T02:45:30.705Z,88.00
2023-01-19T02:47:57.421Z,88.20
2023-01-19T02:50:46.015Z,88.50
2023-01-19T02:53:20.970Z,88.60
2023-01-19T02:56:02.675Z,88.60
2023-01-19T02:58:36.151Z,88.40
2023-01-19T03:01:12.567Z,88.20
2023-01-19T03:03:59.965Z,88.00
2023-01-19T03:06:49.456Z,87.80
2023-01-19T03:09:35.446Z,87.80
2023-01-19T03:12:31.323Z,87.70
2023-01-19T03:15:06.818Z,87.70
2023-01-19T03:17:35.874Z,87.60
2023-01-19T03:20:04.839Z,87.60
2023-01-19T03:22:32.829Z,87.50
2023-01-19T03:25:01.596Z,87.30
2023-01-19T03:27:32.483Z,87.30
2023-01-19T03:30:14.941Z,87.50
2023-01-19T03:32:52.626Z,87.60
2023-01-19T03:35:24.041Z,87.70
2023-01-19T03:37:54.819Z,87.40
2023-01-19T03:40:22.861Z,87.40
2023-01-19T03:42:50.876Z,87.20
2023-01-19T03:45:18.227Z,87.00
2023-01-19T03:47:45.091Z,86.90
2023-01-19T03:50:18.201Z,86.80
2023-01-19T03:52:44.985Z,86.80
2023-01-19T03:55:12.519Z,86.70
2023-01-19T03:57:39.369Z,86.70
2023-01-19T04:00:06.748Z,86.70
2023-01-19T04:02:33.516Z,86.40
2023-01-19T04:05:00.288Z,86.40
2023-01-19T04:07:27.031Z,86.20
2023-01-19T04:09:53.728Z,86.30
2023-01-19T04:12:20.500Z,86.40
2023-01-19T04:14:47.487Z,86.20
2023-01-19T04:17:14.394Z,86.30
2023-01-19T04:19:41.165Z,86.70
2023-01-19T04:22:07.912Z,87.00
2023-01-19T04:24:34.605Z,86.90
2023-01-19T04:27:01.492Z,87.30
2023-01-19T04:29:28.182Z,87.20
2023-01-19T04:31:54.897Z,87.20
2023-01-19T04:34:21.635Z,87.50
2023-01-19T04:36:51.034Z,87.80
2023-01-19T04:39:17.812Z,87.80
2023-01-19T04:41:44.591Z,87.80
2023-01-19T04:44:11.440Z,87.60
2023-01-19T04:46:38.177Z,87.70
2023-01-19T04:49:04.983Z,87.80
2023-01-19T04:51:31.743Z,88.00
2023-01-19T04:53:58.499Z,88.20
2023-01-19T04:56:25.299Z,88.40
2023-01-19T04:58:52.035Z,88.40
2023-01-19T05:01:18.891Z,88.50
2023-01-19T05:03:45.898Z,89.00
2023-01-19T05:06:12.868Z,89.10
2023-01-19T05:08:39.603Z,89.40
2023-01-19T05:11:06.442Z,89.30
2023-01-19T05:13:33.464Z,89.20
2023-01-19T05:16:01.015Z,89.10
2023-01-19T05:18:27.897Z,89.50
2023-01-19T05:20:54.629Z,89.40
2023-01-19T05:23:21.752Z,89.30
2023-01-19T05:25:48.573Z,89.40
2023-01-19T05:28:16.682Z,89.20
2023-01-19T05:30:43.556Z,89.30
2023-01-19T05:33:10.342Z,89.10
2023-01-19T05:35:37.066Z,89.20
2023-01-19T05:38:04.556Z,89.30
2023-01-19T05:40:31.366Z,89.20
2023-01-19T05:43:01.596Z,89.20
2023-01-19T05:45:28.720Z,89.40
2023-01-19T05:47:55.750Z,89.20
2023-01-19T05:50:22.497Z,89.20
2023-01-19T05:52:49.232Z,89.50
2023-01-19T05:55:16.535Z,89.40
2023-01-19T05:57:43.402Z,89.30
2023-01-19T06:00:10.859Z,88.80
2023-01-19T06:02:37.555Z,89.10
2023-01-19T06:05:04.787Z,89.30
2023-01-19T06:07:34.288Z,89.80
2023-01-19T06:10:01.251Z,90.10
2023-01-19T06:12:28.779Z,89.90
2023-01-19T06:14:55.496Z,89.80
2023-01-19T06:17:22.271Z,89.50
2023-01-19T06:19:48.954Z,89.30
2023-01-19T06:22:15.774Z,89.30
2023-01-19T06:24:42.666Z,89.50
2023-01-19T06:27:09.572Z,89.60
2023-01-19T06:29:36.330Z,89.70
2023-01-19T06:32:03.416Z,89.50
2023-01-19T06:34:30.277Z,89.30
2023-01-19T06:36:57.176Z,89.60
2023-01-19T06:39:24.410Z,89.60
2023-01-19T06:41:51.667Z,89.50
2023-01-19T06:44:18.408Z,89.40
2023-01-19T06:46:45.289Z,89.50
2023-01-19T06:49:11.999Z,89.50
2023-01-19T06:51:38.863Z,89.70
2023-01-19T06:54:05.641Z,89.70
2023-01-19T06:56:32.762Z,89.80
2023-01-19T06:58:59.513Z,89.60
2023-01-19T07:01:27.013Z,89.50
2023-01-19T07:03:54.468Z,89.80
2023-01-19T07:06:21.179Z,89.50
2023-01-19T07:08:47.889Z,89.50
2023-01-19T07:11:25.125Z,89.80
2023-01-19T07:13:58.867Z,90.10
2023-01-19T07:16:25.999Z,90.30
2023-01-19T07:18:53.004Z,90.20
2023-01-19T07:21:19.720Z,90.50
2023-01-19T07:23:52.402Z,90.50
2023-01-19T07:26:21.329Z,90.20
2023-01-19T07:28:49.283Z,89.90
2023-01-19T07:31:17.038Z,90.00
2023-01-19T07:33:44.401Z,90.40
2023-01-19T07:36:11.881Z,90.40
2023-01-19T07:38:38.630Z,90.50
2023-01-19T07:41:07.933Z,90.40
2023-01-19T07:43:34.953Z,90.30
2023-01-19T07:46:05.148Z,90.70
2023-01-19T07:48:31.917Z,90.60
2023-01-19T07:51:11.034Z,90.70
2023-01-19T07:53:39.976Z,90.30
2023-01-19T07:56:07.664Z,90.10
2023-01-19T07:58:35.266Z,90.10
2023-01-19T08:01:13.403Z,90.00
2023-01-19T08:03:40.292Z,90.00
2023-01-19T08:06:07.666Z,89.80
2023-01-19T08:08:34.823Z,89.80
2023-01-19T08:11:03.023Z,89.70
2023-01-19T08:13:29.857Z,89.60
2023-01-19T08:15:56.634Z,89.40
2023-01-19T08:18:23.477Z,89.20
2023-01-19T08:20:50.247Z,88.90
2023-01-19T08:23:18.078Z,88.20
2023-01-19T08:25:45.911Z,87.80
2023-01-19T08:28:15.365Z,87.60
2023-01-19T08:30:44.400Z,87.70
2023-01-19T08:33:12.570Z,87.50
2023-01-19T08:35:47.187Z,87.50
2023-01-19T08:38:13.909Z,87.30
2023-01-19T08:40:41.916Z,87.50
2023-01-19T08:43:11.851Z,87.10
2023-01-19T08:45:48.372Z,87.00
2023-01-19T08:48:17.047Z,86.40
2023-01-19T08:50:46.824Z,86.70
2023-01-19T08:53:14.566Z,86.70
2023-01-19T08:55:41.825Z,86.20
2023-01-19T08:58:09.214Z,86.50
2023-01-19T09:00:37.945Z,86.60
2023-01-19T09:03:07.192Z,86.20
2023-01-19T09:05:37.294Z,86.60
2023-01-19T09:08:06.317Z,85.50
2023-01-19T09:10:35.965Z,85.60
2023-01-19T09:13:08.280Z,86.30
2023-01-19T09:15:37.553Z,86.00
2023-01-19T09:18:19.764Z,85.00
2023-01-19T09:20:48.935Z,85.20
2023-01-19T09:23:19.205Z,84.90
2023-01-19T09:25:47.385Z,84.60
2023-01-19T09:28:16.503Z,84.60
2023-01-19T09:30:44.392Z,85.00
2023-01-19T09:33:14.645Z,84.50
2023-01-19T09:35:43.289Z,84.10
2023-01-19T09:38:11.194Z,84.40
2023-01-19T09:40:44.748Z,83.90
2023-01-19T09:43:42.947Z,82.50
2023-01-19T09:46:43.500Z,82.70
2023-01-19T09:49:21.488Z,83.40
2023-01-19T09:51:51.109Z,83.00
2023-01-19T09:54:31.171Z,83.70
2023-01-19T09:56:58.778Z,83.60
2023-01-19T09:59:29.209Z,83.40
2023-01-19T10:02:07.696Z,83.90
2023-01-19T10:04:43.824Z,83.70
2023-01-19T10:07:37.822Z,82.70
2023-01-19T10:10:20.278Z,82.40
2023-01-19T10:13:08.460Z,82.40
2023-01-19T10:15:45.110Z,82.90
2023-01-19T10:18:13.294Z,82.70
2023-01-19T10:20:56.294Z,82.00
2023-01-19T10:23:59.721Z,80.50
2023-01-19T10:26:37.058Z,80.90
2023-01-19T10:29:04.308Z,82.10
2023-01-19T10:31:34.033Z,81.90
2023-01-19T10:34:01.131Z,82.40
2023-01-19T10:36:39.264Z,82.20
2023-01-19T10:39:07.049Z,80.60
2023-01-19T10:41:44.729Z,81.00
2023-01-19T10:44:12.032Z,81.40
2023-01-19T10:46:44.680Z,82.20
2023-01-19T10:49:31.451Z,82.20
2023-01-19T10:52:00.374Z,82.10
2023-01-19T10:54:29.547Z,81.50
2023-01-19T10:57:09.515Z,80.30
2023-01-19T10:59:50.783Z,80.30
2023-01-19T11:02:30.168Z,80.90
2023-01-19T11:04:59.509Z,80.70
2023-01-19T11:07:26.217Z,80.20
2023-01-19T11:10:23.977Z,80.00
2023-01-19T11:13:07.316Z,79.40
2023-01-19T11:15:41.988Z,79.80
2023-01-19T11:18:08.913Z,79.90
2023-01-19T11:20:50.635Z,79.20
2023-01-19T11:23:29.493Z,78.30
2023-01-19T11:26:01.750Z,78.50
2023-01-19T11:28:44.900Z,79.10
2023-01-19T11:31:15.311Z,79.00
2023-01-19T11:33:50.681Z,77.20
2023-01-19T11:36:28.147Z,76.30
2023-01-19T11:38:59.142Z,75.50
2023-01-19T11:41:35.343Z,76.40
2023-01-19T11:44:24.403Z,76.90
2023-01-19T11:46:55.739Z,75.70
2023-01-19T11:49:40.883Z,75.00
2023-01-19T11:52:26.155Z,74.60
2023-01-19T11:55:05.574Z,74.10
2023-01-19T11:57:32.725Z,74.10
2023-01-19T12:00:05.061Z,74.30
2023-01-19T12:02:46.124Z,73.90
2023-01-19T12:05:19.090Z,70.90
2023-01-19T12:07:49.272Z,70.90
2023-01-19T12:10:33.022Z,70.70
2023-01-19T12:13:00.211Z,68.20
2023-01-19T12:15:42.891Z,69.70
2023-01-19T12:18:19.734Z,70.90
2023-01-19T12:20:51.297Z,69.60
2023-01-19T12:23:39.652Z,71.40
2023-01-19T12:26:22.996Z,71.00
2023-01-19T12:28:51.053Z,69.40
2023-01-19T12:31:21.495Z,67.70
2023-01-19T12:33:48.819Z,67.70
2023-01-19T12:36:27.646Z,64.20
2023-01-19T12:39:02.114Z,64.70
2023-01-19T12:41:37.853Z,63.50
2023-01-19T12:44:19.030Z,63.00
2023-01-19T12:46:57.268Z,64.50
2023-01-19T12:49:38.119Z,63.80
2023-01-19T12:52:16.326Z,65.20
2023-01-19T12:54:58.484Z,64.40
2023-01-19T12:57:41.754Z,63.90
2023-01-19T13:00:21.609Z,63.90
2023-01-19T13:02:53.226Z,62.80
2023-01-19T13:05:39.402Z,65.00
2023-01-19T13:08:06.727Z,65.30
2023-01-19T13:11:10.801Z,66.00
2023-01-19T13:13:42.067Z,63.70
2023-01-19T13:16:18.267Z,63.30
2023-01-19T13:19:01.545Z,63.30
2023-01-19T13:21:44.847Z,62.90
2023-01-19T13:24:17.379Z,61.50
2023-01-19T13:26:49.974Z,63.40
2023-01-19T13:29:19.735Z,64.20
2023-01-19T13:31:48.969Z,65.70
2023-01-19T13:34:22.738Z,65.40
2023-01-19T13:36:55.145Z,67.40
2023-01-19T13:39:40.779Z,69.00
2023-01-19T13:42:20.477Z,68.50
2023-01-19T13:44:52.406Z,68.80
2023-01-19T13:47:42.189Z,69.80
2023-01-19T13:50:31.216Z,70.20
2023-01-19T13:52:59.242Z,70.50
2023-01-19T13:55:28.430Z,71.70
2023-01-19T13:57:59.346Z,71.90
2023-01-19T14:00:31.268Z,72.20
2023-01-19T14:03:02.880Z,72.60
2023-01-19T14:05:41.990Z,73.00
2023-01-19T14:08:08.888Z,74.30
2023-01-19T14:10:41.883Z,75.60
2023-01-19T14:13:27.051Z,75.60
2023-01-19T14:15:57.301Z,74.50
2023-01-19T14:18:30.185Z,75.20
2023-01-19T14:20:56.942Z,75.10
2023-01-19T14:23:57.548Z,74.30
2023-01-19T14:26:45.052Z,74.90
2023-01-19T14:29:25.853Z,75.90
2023-01-19T14:32:14.357Z,76.50
2023-01-19T14:34:50.121Z,75.20
2023-01-19T14:37:23.158Z,76.50
2023-01-19T14:40:04.801Z,75.70
2023-01-19T14:42:52.455Z,73.40
2023-01-19T14:45:26.875Z,73.00
2023-01-19T14:48:06.059Z,74.30
2023-01-19T14:50:36.311Z,73.70
2023-01-19T14:53:06.537Z,74.60
2023-01-19T14:55:45.085Z,73.90
2023-01-19T14:58:14.032Z,75.40
2023-01-19T15:00:42.920Z,76.50
2023-01-19T15:03:13.468Z,75.80
2023-01-19T15:05:44.108Z,75.70
2023-01-19T15:08:25.315Z,74.00
2023-01-19T15:10:52.327Z,75.50
2023-01-19T15:13:21.817Z,74.90
2023-01-19T15:15:51.631Z,75.10
2023-01-19T15:18:25.482Z,75.40
2023-01-19T15:20:55.027Z,74.30
2023-01-19T15:23:22.109Z,76.60
2023-01-19T15:25:49.802Z,75.80
2023-01-19T15:28:19.464Z,75.10
2023-01-19T15:30:46.372Z,76.20
2023-01-19T15:33:27.511Z,76.60
2023-01-19T15:35:54.452Z,75.80
2023-01-19T15:38:21.285Z,75.40
2023-01-19T15:40:51.388Z,74.70
2023-01-19T15:43:18.787Z,75.00
2023-01-19T15:45:55.001Z,73.40
2023-01-19T15:48:22.368Z,73.70
2023-01-19T15:50:49.098Z,74.50
2023-01-19T15:53:18.381Z,74.90
2023-01-19T15:55:56.916Z,75.90
2023-01-19T15:58:24.445Z,76.90
2023-01-19T16:00:58.714Z,77.90
2023-01-19T16:03:26.029Z,77.80
2023-01-19T16:05:52.863Z,78.30
2023-01-19T16:08:21.213Z,78.30
2023-01-19T16:10:48.024Z,79.00
2023-01-19T16:13:15.247Z,78.20
2023-01-19T16:15:44.678Z,77.60
2023-01-19T16:18:11.651Z,77.70
2023-01-19T16:20:38.402Z,77.50
2023-01-19T16:23:20.624Z,77.30
2023-01-19T16:26:07.846Z,77.20
2023-01-19T16:28:36.589Z,77.90
2023-01-19T16:31:04.595Z,77.70
2023-01-19T16:33:31.938Z,77.50
2023-01-19T16:35:58.654Z,77.50
2023-01-19T16:38:25.423Z,77.60
2023-01-19T16:40:52.600Z,77.60
2023-01-19T16:43:19.348Z,77.40
2023-01-19T16:46:01.275Z,77.40
2023-01-19T16:48:28.888Z,77.10
2023-01-19T16:51:06.443Z,77.40
2023-01-19T16:53:37.109Z,78.00
2023-01-19T16:56:19.027Z,78.30
2023-01-19T16:58:46.146Z,78.20
2023-01-19T17:01:19.549Z,77.50
2023-01-19T17:03:47.644Z,78.80
2023-01-19T17:06:18.194Z,78.20
2023-01-19T17:08:46.173Z,78.20
2023-01-19T17:11:20.612Z,78.10
2023-01-19T17:13:57.029Z,77.40
2023-01-19T17:16:27.090Z,77.30
2023-01-19T17:18:56.333Z,76.90
2023-01-19T17:21:23.629Z,77.20
2023-01-19T17:23:53.632Z,77.20
2023-01-19T17:26:20.930Z,77.10
2023-01-19T17:28:47.901Z,76.90
2023-01-19T17:31:18.017Z,77.30
2023-01-19T17:33:46.657Z,77.40
2023-01-19T17:36:16.806Z,78.70
2023-01-19T17:38:43.582Z,79.40
2023-01-19T17:41:17.345Z,79.70
2023-01-19T17:43:45.309Z,80.70
2023-01-19T17:46:12.770Z,80.50
2023-01-19T17:48:40.011Z,80.00
2023-01-19T17:51:09.963Z,79.60
2023-01-19T17:53:38.261Z,79.40
2023-01-19T17:56:06.957Z,78.90
2023-01-19T17:58:35.323Z,79.00
2023-01-19T18:01:13.737Z,80.10
2023-01-19T18:03:41.396Z,79.50
2023-01-19T18:06:10.210Z,78.70
2023-01-19T18:08:39.847Z,78.80
2023-01-19T18:11:07.327Z,79.50
2023-01-19T18:13:34.701Z,79.80
2023-01-19T18:16:08.131Z,79.80
2023-01-19T18:18:36.396Z,80.00
2023-01-19T18:21:06.278Z,79.50
2023-01-19T18:23:33.042Z,77.60
2023-01-19T18:26:26.211Z,78.30
2023-01-19T18:28:54.897Z,77.20
2023-01-19T18:31:22.090Z,77.20
2023-01-19T18:33:49.079Z,77.40
2023-01-19T18:36:16.323Z,78.10
2023-01-19T18:38:44.927Z,78.20
2023-01-19T18:41:17.673Z,78.20
2023-01-19T18:43:46.624Z,76.40
2023-01-19T18:46:14.676Z,77.00
2023-01-19T18:48:41.599Z,77.30
2023-01-19T18:51:13.147Z,77.60
2023-01-19T18:53:40.434Z,76.90
2023-01-19T18:56:10.518Z,77.30
2023-01-19T18:58:38.724Z,77.40
2023-01-19T19:01:16.154Z,78.00
2023-01-19T19:03:42.975Z,77.00
2023-01-19T19:06:10.355Z,77.50
2023-01-19T19:08:37.430Z,77.90
2023-01-19T19:11:07.888Z,77.80
2023-01-19T19:13:36.741Z,77.50
2023-01-19T19:16:08.407Z,77.10
2023-01-19T19:18:37.167Z,77.80
2023-01-19T19:21:09.335Z,77.50
2023-01-19T19:23:37.190Z,77.50
2023-01-19T19:26:09.927Z,76.40
2023-01-19T19:28:40.071Z,76.90
2023-01-19T19:31:09.455Z,78.00
2023-01-19T19:33:37.147Z,79.10
2023-01-19T19:36:05.250Z,78.80
2023-01-19T19:38:32.258Z,78.70
2023-01-19T19:41:04.062Z,79.10
2023-01-19T19:43:34.508Z,79.50
2023-01-19T19:46:12.379Z,79.40
2023-01-19T19:48:39.697Z,78.80
2023-01-19T19:51:18.462Z,78.80
2023-01-19T19:53:46.414Z,78.80
2023-01-19T19:56:14.472Z,79.00
2023-01-19T19:58:42.693Z,79.10
2023-01-19T20:01:28.061Z,79.40
2023-01-19T20:03:57.170Z,79.60
2023-01-19T20:06:25.140Z,80.70
2023-01-19T20:08:54.461Z,80.50
2023-01-19T20:11:25.195Z,79.90
2023-01-19T20:13:52.155Z,80.10
2023-01-19T20:16:21.989Z,80.20
2023-01-19T20:18:51.734Z,80.90
2023-01-19T20:21:30.768Z,81.00
2023-01-19T20:24:01.891Z,80.90
2023-01-19T20:26:32.658Z,80.60
2023-01-19T20:29:06.075Z,81.50
2023-01-19T20:31:36.503Z,80.00
2023-01-19T20:34:05.707Z,80.20
2023-01-19T20:36:33.358Z,79.50
2023-01-19T20:39:00.289Z,80.10
2023-01-19T20:41:27.139Z,81.00
2023-01-19T20:43:54.588Z,80.70
2023-01-19T20:46:22.315Z,81.00
2023-01-19T20:48:52.887Z,81.60
2023-01-19T20:51:20.336Z,81.40
2023-01-19T20:53:48.138Z,81.50
2023-01-19T20:56:16.011Z,82.20
2023-01-19T20:58:43.504Z,82.40
2023-01-19T21:01:21.770Z,81.70
2023-01-19T21:03:48.612Z,81.10
2023-01-19T21:06:16.270Z,81.00
2023-01-19T21:08:43.717Z,81.70
2023-01-19T21:11:11.637Z,82.30
2023-01-19T21:13:38.633Z,82.20
2023-01-19T21:16:06.388Z,82.20
2023-01-19T21:18:33.165Z,82.20
2023-01-19T21:20:59.955Z,81.70
2023-01-19T21:23:27.504Z,81.40
2023-01-19T21:25:56.644Z,81.60
2023-01-19T21:28:24.098Z,81.50
2023-01-19T21:30:52.460Z,81.40
2023-01-19T21:33:20.013Z,81.60
2023-01-19T21:35:54.756Z,82.10
2023-01-19T21:38:22.788Z,82.60
2023-01-19T21:40:50.271Z,82.80
2023-01-19T21:43:19.188Z,83.00
2023-01-19T21:45:47.381Z,82.20
2023-01-19T21:48:14.568Z,83.00
2023-01-19T21:50:41.493Z,84.10
2023-01-19T21:53:11.079Z,84.80
2023-01-19T21:55:42.632Z,84.90
2023-01-19T21:58:09.389Z,84.80
2023-01-19T22:00:36.395Z,84.30
2023-01-19T22:03:04.618Z,84.30
2023-01-19T22:05:36.853Z,84.30
2023-01-19T22:08:04.879Z,84.20
2023-01-19T22:10:31.893Z,85.60
2023-01-19T22:12:58.621Z,85.90
2023-01-19T22:15:25.362Z,86.10
2023-01-19T22:17:52.069Z,86.40
2023-01-19T22:20:18.761Z,86.50
2023-01-19T22:22:45.517Z,86.10
2023-01-19T22:25:12.569Z,85.60
2023-01-19T22:27:39.477Z,85.80
2023-01-19T22:30:06.918Z,86.20
2023-01-19T22:32:33.659Z,86.40
2023-01-19T22:35:00.375Z,86.30
2023-01-19T22:37:27.078Z,85.80
2023-01-19T22:39:53.822Z,85.70
2023-01-19T22:42:20.543Z,85.20
2023-01-19T22:44:47.256Z,85.20
2023-01-19T22:47:13.970Z,85.50
2023-01-19T22:49:40.800Z,85.80
2023-01-19T22:52:07.707Z,86.00
2023-01-19T22:54:34.461Z,86.20
2023-01-19T22:57:01.323Z,86.20
2023-01-19T22:59:28.177Z,85.70
2023-01-19T23:01:55.035Z,85.90
2023-01-19T23:04:21.855Z,86.20
2023-01-19T23:06:51.054Z,86.20
2023-01-19T23:09:18.125Z,86.20
2023-01-19T23:11:50.185Z,85.90
2023-01-19T23:14:20.122Z,86.40
2023-01-19T23:16:47.168Z,86.40
2023-01-19T23:19:16.877Z,86.40
2023-01-19T23:21:44.392Z,86.20
2023-01-19T23:24:11.478Z,86.10
2023-01-19T23:26:38.819Z,85.80
2023-01-19T23:29:09.817Z,84.70
2023-01-19T23:31:38.430Z,84.20
2023-01-19T23:34:10.147Z,84.20
2023-01-19T23:36:38.577Z,84.10
2023-01-19T23:39:11.179Z,84.30
2023-01-19T23:41:37.911Z,84.50
2023-01-19T23:44:04.998Z,84.50
2023-01-19T23:46:32.301Z,84.30
2023-01-19T23:48:59.109Z,83.30
2023-01-19T23:51:28.891Z,83.90
2023-01-19T23:53:56.990Z,84.10
2023-01-19T23:56:26.175Z,84.70
2023-01-19T23:58:55.886Z,84.90
